createdAt,value
2023-01-26T00:00:02.974Z,9.720407
2023-01-26T00:01:02.936Z,9.720407
2023-01-26T00:02:02.925Z,9.720471
2023-01-26T00:03:02.940Z,9.720551
2023-01-26T00:04:02.945Z,9.720551
2023-01-26T00:05:02.917Z,9.720551
2023-01-26T00:06:02.894Z,9.720551
2023-01-26T00:07:02.886Z,9.720551
2023-01-26T00:08:02.890Z,9.720551
2023-01-26T00:09:02.871Z,9.720551
2023-01-26T00:10:02.859Z,9.721363
2023-01-26T00:11:02.834Z,9.721363
2023-01-26T00:12:02.836Z,9.720390
2023-01-26T00:13:02.838Z,9.720494
2023-01-26T00:14:02.808Z,9.720729
2023-01-26T00:15:02.803Z,9.720729
2023-01-26T00:16:02.843Z,9.721071
2023-01-26T00:17:02.790Z,9.720927
2023-01-26T00:18:02.807Z,9.721057
2023-01-26T00:19:02.765Z,9.720812
2023-01-26T00:20:02.741Z,9.720803
2023-01-26T00:21:02.737Z,9.720578
2023-01-26T00:22:02.734Z,9.719526
2023-01-26T00:23:02.743Z,9.719382
2023-01-26T00:24:02.767Z,9.719037
2023-01-26T00:25:02.689Z,9.718995
2023-01-26T00:26:02.682Z,9.719194
2023-01-26T00:27:02.672Z,9.719449
2023-01-26T00:28:02.688Z,9.719684
2023-01-26T00:29:02.725Z,9.719764
2023-01-26T00:30:02.647Z,9.719626
2023-01-26T00:31:02.661Z,9.719376
2023-01-26T00:32:02.621Z,9.719115
2023-01-26T00:33:02.634Z,9.719139
2023-01-26T00:34:02.655Z,9.719152
2023-01-26T00:35:02.606Z,9.719136
2023-01-26T00:36:02.602Z,9.719446
2023-01-26T00:37:02.592Z,9.719083
2023-01-26T00:38:02.574Z,9.719003
2023-01-26T00:39:02.596Z,9.719123
2023-01-26T00:40:02.546Z,9.719112
2023-01-26T00:41:02.561Z,9.719080
2023-01-26T00:42:02.569Z,9.719233
2023-01-26T00:43:02.614Z,9.719191
2023-01-26T00:44:02.558Z,9.719156
2023-01-26T00:45:02.502Z,9.719043
2023-01-26T00:46:02.488Z,9.719007
2023-01-26T00:47:02.498Z,9.719008
2023-01-26T00:48:02.468Z,9.718999
2023-01-26T00:49:02.508Z,9.719168
2023-01-26T00:50:02.491Z,9.719178
2023-01-26T00:51:02.429Z,9.719205
2023-01-26T00:52:02.440Z,9.719028
2023-01-26T00:53:02.440Z,9.719178
2023-01-26T00:54:02.403Z,9.719183
2023-01-26T00:55:02.414Z,9.719106
2023-01-26T00:56:02.396Z,9.718946
2023-01-26T00:57:02.406Z,9.718889
2023-01-26T00:58:02.356Z,9.718969
2023-01-26T00:59:02.369Z,9.718948
2023-01-26T01:00:02.367Z,9.718988
2023-01-26T01:01:02.354Z,9.719048
2023-01-26T01:02:02.379Z,9.719059
2023-01-26T01:03:02.319Z,9.718962
2023-01-26T01:04:02.330Z,9.719102
2023-01-26T01:05:02.330Z,9.719070
2023-01-26T01:06:02.300Z,9.719101
2023-01-26T01:07:02.311Z,9.719116
2023-01-26T01:08:02.276Z,9.719082
2023-01-26T01:09:02.271Z,9.719111
2023-01-26T01:10:02.270Z,9.718929
2023-01-26T01:11:02.237Z,9.718953
2023-01-26T01:12:02.230Z,9.718996
2023-01-26T01:13:02.231Z,9.719217
2023-01-26T01:14:02.240Z,9.719148
2023-01-26T01:15:02.203Z,9.719267
2023-01-26T01:16:02.204Z,9.719150
2023-01-26T01:17:02.188Z,9.719124
2023-01-26T01:18:02.171Z,9.719090
2023-01-26T01:19:02.178Z,9.719216
2023-01-26T01:20:02.152Z,9.719026
2023-01-26T01:21:02.140Z,9.718678
2023-01-26T01:22:02.148Z,9.718798
2023-01-26T01:23:02.146Z,9.718886
2023-01-26T01:24:02.158Z,9.718947
2023-01-26T01:25:02.116Z,9.719063
2023-01-26T01:26:02.131Z,9.718848
2023-01-26T01:27:02.099Z,9.718904
2023-01-26T01:28:02.083Z,9.718956
2023-01-26T01:29:02.075Z,9.718931
2023-01-26T01:30:02.064Z,9.718861
2023-01-26T01:31:02.204Z,9.718917
2023-01-26T01:32:02.141Z,9.718891
2023-01-26T01:33:02.038Z,9.718934
2023-01-26T01:34:02.042Z,9.718865
2023-01-26T01:35:02.015Z,9.718854
2023-01-26T01:36:02.025Z,9.718790
2023-01-26T01:37:01.999Z,9.718882
2023-01-26T01:38:02.012Z,9.718916
2023-01-26T01:39:01.972Z,9.718910
2023-01-26T01:40:01.972Z,9.718883
2023-01-26T01:41:01.954Z,9.718946
2023-01-26T01:42:01.960Z,9.718808
2023-01-26T01:43:01.963Z,9.718917
2023-01-26T01:44:01.923Z,9.718894
2023-01-26T01:45:01.919Z,9.718776
2023-01-26T01:46:01.931Z,9.718933
2023-01-26T01:47:01.935Z,9.718899
2023-01-26T01:48:01.892Z,9.718843
2023-01-26T01:49:01.894Z,9.718885
2023-01-26T01:50:01.858Z,9.718872
2023-01-26T01:51:01.913Z,9.718756
2023-01-26T01:52:01.867Z,9.718905
2023-01-26T01:53:01.819Z,9.718919
2023-01-26T01:54:02.825Z,9.718943
2023-01-26T01:55:01.819Z,9.719071
2023-01-26T01:56:01.823Z,9.719036
2023-01-26T01:57:01.791Z,9.718801
2023-01-26T01:58:02.786Z,9.718686
2023-01-26T01:59:01.773Z,9.718895
2023-01-26T02:00:01.773Z,9.718976
2023-01-26T02:01:01.799Z,9.719040
2023-01-26T02:02:01.790Z,9.718998
2023-01-26T02:03:01.759Z,9.718987
2023-01-26T02:04:33.629Z,9.718995
2023-01-26T02:05:01.725Z,9.719048
2023-01-26T02:06:01.709Z,9.719058
2023-01-26T02:07:01.709Z,9.719099
2023-01-26T02:08:01.718Z,9.719099
2023-01-26T02:09:01.678Z,9.719099
2023-01-26T02:10:01.669Z,9.718957
2023-01-26T02:11:01.669Z,9.718957
2023-01-26T02:12:01.669Z,9.718957
2023-01-26T02:13:01.679Z,9.718957
2023-01-26T02:14:01.633Z,9.718957
2023-01-26T02:15:01.653Z,9.718957
2023-01-26T02:16:01.646Z,9.718957
2023-01-26T02:17:01.610Z,9.718957
2023-01-26T02:18:01.594Z,9.719442
2023-01-26T02:19:01.585Z,9.719625
2023-01-26T02:20:01.619Z,9.719831
2023-01-26T02:21:01.577Z,9.719998
2023-01-26T02:22:01.576Z,9.719923
2023-01-26T02:23:01.546Z,9.719890
2023-01-26T02:24:01.544Z,9.719762
2023-01-26T02:25:01.524Z,9.719924
2023-01-26T02:26:01.550Z,9.719924
2023-01-26T02:27:01.528Z,9.719924
2023-01-26T02:28:01.556Z,9.719924
2023-01-26T02:29:01.524Z,9.719934
2023-01-26T02:30:01.516Z,9.719873
2023-01-26T02:31:01.587Z,9.719730
2023-01-26T02:32:01.554Z,9.719905
2023-01-26T02:33:01.457Z,9.719749
2023-01-26T02:34:01.442Z,9.719768
2023-01-26T02:35:01.486Z,9.719626
2023-01-26T02:36:01.420Z,9.719703
2023-01-26T02:37:01.410Z,9.719609
2023-01-26T02:38:01.397Z,9.719432
2023-01-26T02:39:01.426Z,9.719451
2023-01-26T02:40:01.388Z,9.719515
2023-01-26T02:41:01.376Z,9.719529
2023-01-26T02:42:01.358Z,9.719339
2023-01-26T02:43:01.359Z,9.719424
2023-01-26T02:44:01.356Z,9.719690
2023-01-26T02:45:01.455Z,9.719488
2023-01-26T02:46:01.387Z,9.719673
2023-01-26T02:47:01.312Z,9.719808
2023-01-26T02:48:01.309Z,9.719769
2023-01-26T02:49:01.286Z,9.719701
2023-01-26T02:50:01.306Z,9.719610
2023-01-26T02:51:01.269Z,9.719597
2023-01-26T02:52:01.260Z,9.719434
2023-01-26T02:53:01.288Z,9.719400
2023-01-26T02:54:01.265Z,9.719485
2023-01-26T02:55:01.229Z,9.719459
2023-01-26T02:56:01.239Z,9.719388
2023-01-26T02:57:01.243Z,9.719459
2023-01-26T02:58:01.214Z,9.719492
2023-01-26T02:59:01.189Z,9.719520
2023-01-26T03:00:01.188Z,9.719525
2023-01-26T03:01:02.255Z,9.719480
2023-01-26T03:02:01.195Z,9.719466
2023-01-26T03:03:01.191Z,9.719582
2023-01-26T03:04:01.162Z,9.719535
2023-01-26T03:05:01.136Z,9.719588
2023-01-26T03:06:01.146Z,9.719547
2023-01-26T03:07:01.130Z,9.719581
2023-01-26T03:08:01.138Z,9.719522
2023-01-26T03:09:01.123Z,9.719655
2023-01-26T03:10:01.111Z,9.719613
2023-01-26T03:11:01.082Z,9.719634
2023-01-26T03:12:01.069Z,9.719746
2023-01-26T03:13:01.062Z,9.719878
2023-01-26T03:14:01.071Z,9.719766
2023-01-26T03:15:01.048Z,9.719853
2023-01-26T03:16:01.081Z,9.720083
2023-01-26T03:17:01.022Z,9.720112
2023-01-26T03:18:01.030Z,9.719862
2023-01-26T03:19:01.006Z,9.719814
2023-01-26T03:20:01.025Z,9.719827
2023-01-26T03:21:00.981Z,9.719860
2023-01-26T03:22:00.990Z,9.719897
2023-01-26T03:23:00.969Z,9.719704
2023-01-26T03:24:01.065Z,9.719796
2023-01-26T03:25:00.957Z,9.719593
2023-01-26T03:26:00.934Z,9.719647
2023-01-26T03:27:00.933Z,9.719595
2023-01-26T03:28:00.930Z,9.719766
2023-01-26T03:29:00.933Z,9.719642
2023-01-26T03:30:00.908Z,9.719719
2023-01-26T03:31:00.936Z,9.719573
2023-01-26T03:32:00.883Z,9.719572
2023-01-26T03:33:00.892Z,9.719265
2023-01-26T03:34:00.870Z,9.719402
2023-01-26T03:35:00.857Z,9.719476
2023-01-26T03:36:00.862Z,9.719339
2023-01-26T03:37:00.881Z,9.719214
2023-01-26T03:38:00.837Z,9.719238
2023-01-26T03:39:00.832Z,9.719416
2023-01-26T03:40:00.818Z,9.719359
2023-01-26T03:41:00.803Z,9.719541
2023-01-26T03:42:00.825Z,9.719417
2023-01-26T03:43:00.798Z,9.719384
2023-01-26T03:44:00.764Z,9.719261
2023-01-26T03:45:00.756Z,9.719373
2023-01-26T03:46:00.745Z,9.719383
2023-01-26T03:47:00.758Z,9.719274
2023-01-26T03:48:00.767Z,9.719308
2023-01-26T03:49:00.706Z,9.719291
2023-01-26T03:50:00.700Z,9.719232
2023-01-26T03:51:00.729Z,9.719253
2023-01-26T03:52:00.690Z,9.719219
2023-01-26T03:53:00.704Z,9.719284
2023-01-26T03:54:00.681Z,9.719205
2023-01-26T03:55:00.664Z,9.719264
2023-01-26T03:56:00.646Z,9.719294
2023-01-26T03:57:00.655Z,9.719281
2023-01-26T03:58:00.619Z,9.719395
2023-01-26T03:59:00.655Z,9.719061
2023-01-26T04:00:00.635Z,9.719246
2023-01-26T04:01:00.642Z,9.719432
2023-01-26T04:02:00.660Z,9.719427
2023-01-26T04:03:00.599Z,9.719357
2023-01-26T04:04:00.597Z,9.718964
2023-01-26T04:05:00.565Z,9.719151
2023-01-26T04:06:15.704Z,9.719397
2023-01-26T04:07:01.540Z,9.719307
2023-01-26T04:08:00.541Z,9.719425
2023-01-26T04:09:00.518Z,9.719355
2023-01-26T04:10:00.532Z,9.719328
2023-01-26T04:11:00.544Z,9.719321
2023-01-26T04:12:00.504Z,9.719424
2023-01-26T04:13:00.498Z,9.719250
2023-01-26T04:14:00.489Z,9.719187
2023-01-26T04:15:00.491Z,9.719306
2023-01-26T04:16:00.469Z,9.719468
2023-01-26T04:17:00.491Z,9.719270
2023-01-26T04:18:00.432Z,9.719251
2023-01-26T04:19:00.451Z,9.719404
2023-01-26T04:20:00.416Z,9.719532
2023-01-26T04:21:00.425Z,9.719592
2023-01-26T04:22:00.490Z,9.719573
2023-01-26T04:23:00.385Z,9.719417
2023-01-26T04:24:00.407Z,9.719385
2023-01-26T04:25:00.367Z,9.719419
2023-01-26T04:26:00.388Z,9.719359
2023-01-26T04:27:00.340Z,9.719276
2023-01-26T04:28:00.347Z,9.719298
2023-01-26T04:29:00.334Z,9.719211
2023-01-26T04:30:00.321Z,9.719188
2023-01-26T04:31:00.331Z,9.719207
2023-01-26T04:32:00.304Z,9.719121
2023-01-26T04:33:00.296Z,9.719116
2023-01-26T04:34:00.287Z,9.719301
2023-01-26T04:35:00.272Z,9.719162
2023-01-26T04:36:00.277Z,9.719172
2023-01-26T04:37:00.278Z,9.719226
2023-01-26T04:38:00.270Z,9.719290
2023-01-26T04:39:00.239Z,9.719226
2023-01-26T04:40:00.240Z,9.719165
2023-01-26T04:41:00.235Z,9.719200
2023-01-26T04:42:00.229Z,9.719193
2023-01-26T04:43:00.221Z,9.719189
2023-01-26T04:44:00.204Z,9.719201
2023-01-26T04:45:00.183Z,9.719194
2023-01-26T04:46:00.218Z,9.719178
2023-01-26T04:47:00.182Z,9.719182
2023-01-26T04:48:00.156Z,9.719173
2023-01-26T04:49:00.160Z,9.719232
2023-01-26T04:50:00.134Z,9.719167
2023-01-26T04:51:00.126Z,9.719177
2023-01-26T04:52:00.128Z,9.719170
2023-01-26T04:53:00.131Z,9.719172
2023-01-26T04:54:00.129Z,9.719134
2023-01-26T04:55:00.123Z,9.719123
2023-01-26T04:56:00.088Z,9.719162
2023-01-26T04:57:00.090Z,9.719209
2023-01-26T04:58:00.048Z,9.719224
2023-01-26T04:59:00.051Z,9.719241
2023-01-26T05:00:00.039Z,9.719296
2023-01-26T05:01:00.046Z,9.719269
2023-01-26T05:02:00.093Z,9.719353
2023-01-26T05:03:00.009Z,9.719269
2023-01-26T05:04:00.025Z,9.719386
2023-01-26T05:04:59.986Z,9.719442
2023-01-26T05:05:59.970Z,9.719495
2023-01-26T05:06:59.989Z,9.719377
2023-01-26T05:07:59.961Z,9.719247
2023-01-26T05:08:59.955Z,9.719357
2023-01-26T05:09:59.933Z,9.719384
2023-01-26T05:10:59.948Z,9.719369
2023-01-26T05:11:59.918Z,9.719294
2023-01-26T05:12:59.926Z,9.719236
2023-01-26T05:13:59.907Z,9.719306
2023-01-26T05:14:59.891Z,9.719393
2023-01-26T05:15:59.905Z,9.719270
2023-01-26T05:17:00.193Z,9.719286
2023-01-26T05:17:59.893Z,9.719271
2023-01-26T05:18:59.833Z,9.719257
2023-01-26T05:19:59.842Z,9.719226
2023-01-26T05:20:59.861Z,9.719240
2023-01-26T05:21:59.840Z,9.719269
2023-01-26T05:22:59.825Z,9.719269
2023-01-26T05:23:59.797Z,9.719269
2023-01-26T05:24:59.789Z,9.719269
2023-01-26T05:25:59.805Z,9.719269
2023-01-26T05:26:59.771Z,9.719269
2023-01-26T05:27:59.757Z,9.719269
2023-01-26T05:28:59.762Z,9.718809
2023-01-26T05:29:59.753Z,9.718902
2023-01-26T05:30:59.835Z,9.718958
2023-01-26T05:31:59.798Z,9.718964
2023-01-26T05:32:59.707Z,9.719153
2023-01-26T05:33:59.760Z,9.719213
2023-01-26T05:34:59.712Z,9.719278
2023-01-26T05:35:59.698Z,9.719509
2023-01-26T05:36:59.675Z,9.719480
2023-01-26T05:37:59.668Z,9.719343
2023-01-26T05:38:59.694Z,9.719283
2023-01-26T05:39:59.645Z,9.719239
2023-01-26T05:40:59.668Z,9.719215
2023-01-26T05:41:59.640Z,9.719196
2023-01-26T05:42:59.631Z,9.719211
2023-01-26T05:43:59.621Z,9.719316
2023-01-26T05:44:59.617Z,9.719326
2023-01-26T05:45:59.675Z,9.719304
2023-01-26T05:46:59.600Z,9.719246
2023-01-26T05:47:59.597Z,9.719373
2023-01-26T05:48:59.569Z,9.719316
2023-01-26T05:49:59.589Z,9.719389
2023-01-26T05:50:59.535Z,9.719305
2023-01-26T05:51:59.526Z,9.719333
2023-01-26T05:52:59.525Z,9.719283
2023-01-26T05:53:59.525Z,9.719275
2023-01-26T05:54:59.532Z,9.719262
2023-01-26T05:55:59.492Z,9.719412
2023-01-26T05:56:59.491Z,9.719522
2023-01-26T05:57:59.489Z,9.719534
2023-01-26T05:58:59.462Z,9.719199
2023-01-26T05:59:59.459Z,9.719095
2023-01-26T06:00:59.445Z,9.719031
2023-01-26T06:01:59.457Z,9.719189
2023-01-26T06:02:59.446Z,9.719124
2023-01-26T06:03:59.466Z,9.719120
2023-01-26T06:04:59.430Z,9.719145
2023-01-26T06:05:59.403Z,9.719331
2023-01-26T06:06:59.389Z,9.719392
2023-01-26T06:07:59.392Z,9.719342
2023-01-26T06:08:59.373Z,9.719527
2023-01-26T06:09:59.391Z,9.719045
2023-01-26T06:10:59.364Z,9.719439
2023-01-26T06:11:59.350Z,9.719708
2023-01-26T06:12:59.402Z,9.719334
2023-01-26T06:13:59.315Z,9.718729
2023-01-26T06:14:59.332Z,9.719075
2023-01-26T06:15:59.300Z,9.719392
2023-01-26T06:16:59.305Z,9.719677
2023-01-26T06:17:59.333Z,9.720481
2023-01-26T06:18:59.277Z,9.719038
2023-01-26T06:19:59.266Z,9.718933
2023-01-26T06:20:59.263Z,9.719051
2023-01-26T06:21:59.247Z,9.719492
2023-01-26T06:22:59.266Z,9.718945
2023-01-26T06:23:59.301Z,9.719259
2023-01-26T06:24:59.209Z,9.719169
2023-01-26T06:25:59.202Z,9.719254
2023-01-26T06:27:00.194Z,9.719197
2023-01-26T06:27:59.185Z,9.719064
2023-01-26T06:28:59.224Z,9.719002
2023-01-26T06:29:59.233Z,9.719102
2023-01-26T06:30:59.196Z,9.719189
2023-01-26T06:31:59.151Z,9.719274
2023-01-26T06:33:00.305Z,9.719348
2023-01-26T06:33:59.156Z,9.719530
2023-01-26T06:34:59.143Z,9.719400
2023-01-26T06:35:59.111Z,9.719403
2023-01-26T06:36:59.103Z,9.719492
2023-01-26T06:37:59.091Z,9.719112
2023-01-26T06:39:00.783Z,9.719105
2023-01-26T06:40:00.137Z,9.719044
2023-01-26T06:40:59.054Z,9.718787
2023-01-26T06:41:59.057Z,9.719074
2023-01-26T06:42:59.042Z,9.719221
2023-01-26T06:43:59.049Z,9.719275
2023-01-26T06:44:59.050Z,9.719578
2023-01-26T06:45:59.049Z,9.719431
2023-01-26T06:46:59.007Z,9.719431
2023-01-26T06:47:58.993Z,9.719431
2023-01-26T06:48:58.989Z,9.719431
2023-01-26T06:49:59.005Z,9.720028
2023-01-26T06:50:59.011Z,9.719822
2023-01-26T06:51:58.965Z,9.719526
2023-01-26T06:52:58.943Z,9.718437
2023-01-26T06:53:58.970Z,9.716775
2023-01-26T06:54:58.949Z,9.717724
2023-01-26T06:55:58.925Z,9.719159
2023-01-26T06:56:58.893Z,9.719534
2023-01-26T06:57:58.882Z,9.719668
2023-01-26T06:58:58.912Z,9.719661
2023-01-26T06:59:58.938Z,9.719499
2023-01-26T07:00:58.905Z,9.719509
2023-01-26T07:01:58.839Z,9.719481
2023-01-26T07:02:58.847Z,9.719546
2023-01-26T07:03:58.838Z,9.719494
2023-01-26T07:04:58.868Z,9.719576
2023-01-26T07:05:58.804Z,9.719651
2023-01-26T07:06:59.812Z,9.719558
2023-01-26T07:07:58.790Z,9.719493
2023-01-26T07:08:58.799Z,9.719494
2023-01-26T07:09:58.808Z,9.719542
2023-01-26T07:10:58.767Z,9.719493
2023-01-26T07:11:58.761Z,9.719400
2023-01-26T07:12:58.754Z,9.719465
2023-01-26T07:13:58.737Z,9.719364
2023-01-26T07:14:58.750Z,9.719505
2023-01-26T07:15:58.728Z,9.719615
2023-01-26T07:16:58.715Z,9.719528
2023-01-26T07:17:58.689Z,9.719456
2023-01-26T07:18:58.705Z,9.719362
2023-01-26T07:19:58.717Z,9.719366
2023-01-26T07:20:58.685Z,9.719353
2023-01-26T07:21:58.664Z,9.719347
2023-01-26T07:22:58.671Z,9.719306
2023-01-26T07:23:58.713Z,9.719333
2023-01-26T07:24:58.638Z,9.719391
2023-01-26T07:25:58.887Z,9.719336
2023-01-26T07:26:58.628Z,9.719357
2023-01-26T07:27:58.622Z,9.719351
2023-01-26T07:28:58.631Z,9.719383
2023-01-26T07:29:58.588Z,9.719385
2023-01-26T07:30:58.663Z,9.719203
2023-01-26T07:31:58.620Z,9.719259
2023-01-26T07:32:58.600Z,9.719321
2023-01-26T07:33:58.571Z,9.719349
2023-01-26T07:34:58.554Z,9.719188
2023-01-26T07:35:58.546Z,9.719103
2023-01-26T07:36:59.544Z,9.719196
2023-01-26T07:37:58.527Z,9.719312
2023-01-26T07:38:58.498Z,9.719279
2023-01-26T07:39:58.495Z,9.719294
2023-01-26T07:40:58.482Z,9.719190
2023-01-26T07:41:58.506Z,9.719350
2023-01-26T07:42:58.473Z,9.719274
2023-01-26T07:43:58.501Z,9.719294
2023-01-26T07:44:58.440Z,9.719375
2023-01-26T07:45:58.460Z,9.719340
2023-01-26T07:46:58.485Z,9.719345
2023-01-26T07:47:58.412Z,9.719164
2023-01-26T07:48:58.478Z,9.719260
2023-01-26T07:49:58.404Z,9.719170
2023-01-26T07:50:58.389Z,9.719173
2023-01-26T07:51:58.406Z,9.719440
2023-01-26T07:52:58.369Z,9.719576
2023-01-26T07:53:58.359Z,9.719336
2023-01-26T07:54:58.346Z,9.719491
2023-01-26T07:55:58.354Z,9.719633
2023-01-26T07:56:58.351Z,9.719123
2023-01-26T07:57:58.348Z,9.719288
2023-01-26T07:58:58.316Z,9.718965
2023-01-26T07:59:58.308Z,9.719322
2023-01-26T08:00:58.302Z,9.719369
2023-01-26T08:01:58.319Z,9.719311
2023-01-26T08:02:58.446Z,9.719176
2023-01-26T08:04:30.765Z,9.719200
2023-01-26T08:04:58.370Z,9.719295
2023-01-26T08:05:58.250Z,9.719181
2023-01-26T08:06:58.792Z,9.719277
2023-01-26T08:07:58.248Z,9.719207
2023-01-26T08:08:58.255Z,9.719182
2023-01-26T08:09:58.193Z,9.719187
2023-01-26T08:10:58.185Z,9.719187
2023-01-26T08:11:58.193Z,9.719112
2023-01-26T08:12:58.213Z,9.719137
2023-01-26T08:13:58.188Z,9.719153
2023-01-26T08:14:58.210Z,9.719206
2023-01-26T08:15:58.799Z,9.719195
2023-01-26T08:16:58.144Z,9.719172
2023-01-26T08:17:58.128Z,9.719195
2023-01-26T08:18:58.129Z,9.719184
2023-01-26T08:19:58.137Z,9.719164
2023-01-26T08:20:58.106Z,9.719107
2023-01-26T08:21:58.110Z,9.719153
2023-01-26T08:23:00.374Z,9.719165
2023-01-26T08:23:59.070Z,9.719217
2023-01-26T08:24:58.873Z,9.719152
2023-01-26T08:25:58.112Z,9.719217
2023-01-26T08:26:58.076Z,9.719202
2023-01-26T08:27:58.076Z,9.719199
2023-01-26T08:28:58.020Z,9.719197
2023-01-26T08:29:58.019Z,9.719177
2023-01-26T08:30:58.047Z,9.719134
2023-01-26T08:31:58.040Z,9.719193
2023-01-26T08:32:58.011Z,9.719175
2023-01-26T08:33:57.999Z,9.719213
2023-01-26T08:34:57.986Z,9.719217
2023-01-26T08:35:58.010Z,9.719194
2023-01-26T08:36:58.654Z,9.719147
2023-01-26T08:37:57.959Z,9.719200
2023-01-26T08:38:57.988Z,9.719219
2023-01-26T08:39:57.924Z,9.719254
2023-01-26T08:40:58.687Z,9.719218
2023-01-26T08:41:57.903Z,9.719257
2023-01-26T08:42:57.901Z,9.719231
2023-01-26T08:43:57.882Z,9.719340
2023-01-26T08:44:57.913Z,9.719198
2023-01-26T08:45:57.943Z,9.719110
2023-01-26T08:46:57.866Z,9.719157
2023-01-26T08:47:57.846Z,9.719151
2023-01-26T08:49:00.264Z,9.719208
2023-01-26T08:49:58.834Z,9.719174
2023-01-26T08:50:57.828Z,9.719291
2023-01-26T08:51:57.816Z,9.719199
2023-01-26T08:52:57.820Z,9.719194
2023-01-26T08:53:57.805Z,9.719172
2023-01-26T08:54:57.763Z,9.719158
2023-01-26T08:55:57.764Z,9.719213
2023-01-26T08:56:58.770Z,9.719221
2023-01-26T08:57:57.745Z,9.719276
2023-01-26T08:58:58.213Z,9.719195
2023-01-26T08:59:57.719Z,9.719181
2023-01-26T09:00:57.733Z,9.719193
2023-01-26T09:01:57.779Z,9.719248
2023-01-26T09:02:57.816Z,9.719277
2023-01-26T09:03:57.669Z,9.719290
2023-01-26T09:04:57.687Z,9.719376
2023-01-26T09:05:57.708Z,9.719521
2023-01-26T09:06:58.261Z,9.719316
2023-01-26T09:07:57.761Z,9.719234
2023-01-26T09:08:57.646Z,9.719336
2023-01-26T09:09:57.672Z,9.719367
2023-01-26T09:10:57.623Z,9.719378
2023-01-26T09:11:57.638Z,9.718914
2023-01-26T09:12:57.618Z,9.719043
2023-01-26T09:13:57.574Z,9.719270
2023-01-26T09:14:57.572Z,9.719303
2023-01-26T09:15:57.551Z,9.719201
2023-01-26T09:16:57.647Z,9.719279
2023-01-26T09:18:00.513Z,9.719288
2023-01-26T09:18:57.531Z,9.719231
2023-01-26T09:19:57.548Z,9.719233
2023-01-26T09:20:57.605Z,9.719172
2023-01-26T09:21:57.535Z,9.719133
2023-01-26T09:22:57.516Z,9.719176
2023-01-26T09:23:57.604Z,9.718951
2023-01-26T09:24:57.474Z,9.719180
2023-01-26T09:25:57.501Z,9.719294
2023-01-26T09:26:57.463Z,9.719172
2023-01-26T09:27:57.475Z,9.719298
2023-01-26T09:28:57.467Z,9.719267
2023-01-26T09:29:57.531Z,9.719314
2023-01-26T09:30:57.537Z,9.719319
2023-01-26T09:31:57.505Z,9.719194
2023-01-26T09:32:57.444Z,9.719241
2023-01-26T09:33:57.386Z,9.719228
2023-01-26T09:34:57.411Z,9.719302
2023-01-26T09:35:57.391Z,9.719322
2023-01-26T09:36:57.399Z,9.719338
2023-01-26T09:37:57.353Z,9.719327
2023-01-26T09:38:57.355Z,9.719253
2023-01-26T09:39:57.359Z,9.719216
2023-01-26T09:40:57.316Z,9.719315
2023-01-26T09:41:57.404Z,9.719266
2023-01-26T09:42:58.333Z,9.719130
2023-01-26T09:43:57.305Z,9.719149
2023-01-26T09:44:57.285Z,9.719084
2023-01-26T09:45:57.326Z,9.719095
2023-01-26T09:46:57.281Z,9.718996
2023-01-26T09:47:57.265Z,9.719029
2023-01-26T09:48:57.250Z,9.718912
2023-01-26T09:49:59.314Z,9.718906
2023-01-26T09:50:57.261Z,9.718919
2023-01-26T09:52:00.593Z,9.718952
2023-01-26T09:52:58.213Z,9.718908
2023-01-26T09:53:57.191Z,9.719144
2023-01-26T09:54:57.203Z,9.719101
2023-01-26T09:55:57.186Z,9.718956
2023-01-26T09:56:57.177Z,9.718991
2023-01-26T09:57:57.157Z,9.718877
2023-01-26T09:58:57.153Z,9.718936
2023-01-26T09:59:57.168Z,9.718863
2023-01-26T10:00:57.130Z,9.718885
2023-01-26T10:01:57.115Z,9.718925
2023-01-26T10:02:57.177Z,9.718948
2023-01-26T10:03:57.538Z,9.718855
2023-01-26T10:04:57.137Z,9.718932
2023-01-26T10:05:57.082Z,9.718886
2023-01-26T10:06:57.085Z,9.718871
2023-01-26T10:07:57.059Z,9.718929
2023-01-26T10:08:57.051Z,9.718945
2023-01-26T10:09:57.067Z,9.718933
2023-01-26T10:10:57.057Z,9.718981
2023-01-26T10:11:57.052Z,9.719023
2023-01-26T10:12:57.055Z,9.719030
2023-01-26T10:13:56.994Z,9.719048
2023-01-26T10:14:57.635Z,9.719026
2023-01-26T10:15:58.107Z,9.718979
2023-01-26T10:16:56.986Z,9.718987
2023-01-26T10:17:56.989Z,9.719039
2023-01-26T10:18:56.962Z,9.718930
2023-01-26T10:19:56.991Z,9.718938
2023-01-26T10:20:56.943Z,9.718974
2023-01-26T10:21:56.930Z,9.719044
2023-01-26T10:22:56.953Z,9.719059
2023-01-26T10:23:56.980Z,9.719130
2023-01-26T10:24:56.896Z,9.719234
2023-01-26T10:25:56.934Z,9.719023
2023-01-26T10:26:56.890Z,9.719202
2023-01-26T10:27:56.873Z,9.718911
2023-01-26T10:28:56.881Z,9.719017
2023-01-26T10:29:56.855Z,9.718951
2023-01-26T10:30:56.958Z,9.718918
2023-01-26T10:31:56.895Z,9.718904
2023-01-26T10:32:56.826Z,9.719161
2023-01-26T10:33:56.811Z,9.719336
2023-01-26T10:34:56.811Z,9.719244
2023-01-26T10:35:56.785Z,9.719053
2023-01-26T10:36:56.783Z,9.719076
2023-01-26T10:37:56.830Z,9.719258
2023-01-26T10:38:56.763Z,9.719349
2023-01-26T10:39:56.748Z,9.719191
2023-01-26T10:40:56.760Z,9.719257
2023-01-26T10:41:56.759Z,9.719335
2023-01-26T10:42:56.754Z,9.719372
2023-01-26T10:43:56.724Z,9.718973
2023-01-26T10:44:59.224Z,9.719363
2023-01-26T10:45:57.688Z,9.719346
2023-01-26T10:46:56.703Z,9.719446
2023-01-26T10:47:56.706Z,9.719408
2023-01-26T10:48:56.660Z,9.719198
2023-01-26T10:49:56.674Z,9.719325
2023-01-26T10:50:56.644Z,9.719413
2023-01-26T10:51:56.648Z,9.719216
2023-01-26T10:52:56.652Z,9.719232
2023-01-26T10:53:56.633Z,9.719256
2023-01-26T10:54:56.635Z,9.719102
2023-01-26T10:55:56.647Z,9.719034
2023-01-26T10:56:56.601Z,9.718947
2023-01-26T10:57:56.577Z,9.718723
2023-01-26T10:58:56.577Z,9.719006
2023-01-26T10:59:56.597Z,9.719216
2023-01-26T11:00:56.535Z,9.719253
2023-01-26T11:01:56.636Z,9.719314
2023-01-26T11:02:56.605Z,9.719281
2023-01-26T11:03:56.530Z,9.719302
2023-01-26T11:04:56.520Z,9.719316
2023-01-26T11:05:57.512Z,9.719273
2023-01-26T11:06:56.478Z,9.719323
2023-01-26T11:07:56.525Z,9.719247
2023-01-26T11:08:56.498Z,9.719106
2023-01-26T11:09:56.451Z,9.719230
2023-01-26T11:10:56.434Z,9.719300
2023-01-26T11:11:56.445Z,9.719327
2023-01-26T11:12:56.444Z,9.719420
2023-01-26T11:13:56.441Z,9.719357
2023-01-26T11:14:56.408Z,9.719197
2023-01-26T11:15:56.479Z,9.719235
2023-01-26T11:16:56.396Z,9.719293
2023-01-26T11:17:56.375Z,9.719166
2023-01-26T11:18:56.387Z,9.719484
2023-01-26T11:19:56.415Z,9.719470
2023-01-26T11:20:56.406Z,9.719299
2023-01-26T11:21:56.331Z,9.719353
2023-01-26T11:22:56.321Z,9.719301
2023-01-26T11:23:56.401Z,9.719338
2023-01-26T11:24:56.321Z,9.719167
2023-01-26T11:25:56.326Z,9.719481
2023-01-26T11:26:56.299Z,9.719536
2023-01-26T11:27:56.271Z,9.719440
2023-01-26T11:28:56.279Z,9.719333
2023-01-26T11:29:56.281Z,9.719436
2023-01-26T11:30:56.329Z,9.719442
2023-01-26T11:31:56.272Z,9.719357
2023-01-26T11:32:56.249Z,9.719326
2023-01-26T11:33:56.215Z,9.719335
2023-01-26T11:34:56.203Z,9.719272
2023-01-26T11:35:56.236Z,9.719357
2023-01-26T11:36:56.225Z,9.719393
2023-01-26T11:37:56.188Z,9.719348
2023-01-26T11:38:56.160Z,9.719404
2023-01-26T11:39:56.167Z,9.719378
2023-01-26T11:40:56.178Z,9.719534
2023-01-26T11:41:56.165Z,9.719438
2023-01-26T11:42:56.189Z,9.719426
2023-01-26T11:43:56.225Z,9.719407